Joao Neves

Scout - Nacional
4 Jun 2028
Sunday
Process

Personality

Adaptability (4) Ambition (4) Controversy (18) Loyalty (20) Pressure (16) Professionalism (8) Sportsmanship (13) Temperament (15)

Profile

Coaching Style Democratic
License Continental B
Determination 11
Man Management 6
Motivating 8
Discipline 11
Job Satisfaction
100%
Fatigue
0%
Role Scout
Wage 59.1K p/w
Contract 14.03.2030

Performance

Behaviour Good
Training Effectiveness
41%
Player Development
45%
Injury Prevention
60%
Tactical Implementation
45%

Recent Events

Birthday 56d ago

Currently Monitoring

95
Player Club Status Ability Confidence Watched Last Observed Latest Vote
Bahmed Deuff FC Metz Active 125 / 122 40% 1 26.01.2028 -
Luiz Gustavo Mirassol Active 114 / 111 40% 1 26.01.2028 -
Finn Jeltsch VfB Stuttgart Active 137 / 154 40% 1 02.01.2028 -
Edwar López Independiente Medellin Active 117 / 117 67% 1 01.01.2028 Approve
Matej Poplatnik Grêmio Active 113 / 113 66% 1 01.01.2028 Approve
Mohamed Sherif Halmstad Active 110 / 110 67% 1 01.01.2028 Approve
Andile Zwane Rosario Central Active 123 / 123 70% 1 01.01.2028 Approve
Stephen Odey CS Constantine Active 105 / 114 40% 2 30.08.2027 -
Marcos Paulo Juventude Active 115 / 107 40% 2 30.08.2027 -
Kaio Jorge Cruzeiro Active 155 / 144 40% 2 29.08.2027 -
Luca Martínez Dupuy Godoy Cruz Active 115 / 107 40% 1 29.08.2027 -
Fortune Bassey Rangers International Active 97 / 89 40% 1 26.08.2027 -
Clemente Montes Universidad de Chile Active 120 / 114 40% 1 24.08.2027 -
Samuel Anakwe Remo Stars Active 103 / 94 40% 1 24.08.2027 -
Jeriel De Santis Caracas Active 98 / 97 40% 1 23.08.2027 -
César Magallan Estudiantes de Merida Active 104 / 112 40% 1 23.08.2027 -
André Henrique Mirassol Active 112 / 116 40% 1 22.08.2027 -
Luca Moro Padova Active 121 / 131 40% 1 19.08.2027 -
Simone Mazzocchi Cosenza Active 114 / 114 40% 1 17.08.2027 -
Giuseppe Di Serio Spezia Active 136 / 125 40% 1 17.08.2027 -
Josh Sargent Toronto FC Active 126 / 139 40% 1 15.08.2027 -
Kelvin Flórez Udinese Active 114 / 123 40% 1 13.08.2027 -
Marco Tumminello Benevento Active 110 / 117 40% 1 13.08.2027 -
Adama Goïta Remo Stars Active 103 / 115 40% 1 12.08.2027 -
Edoardo Soleri Sampdoria Active 132 / 114 40% 1 11.08.2027 -
Honest Ahanor Fiorentina Active 134 / 148 40% 1 11.08.2027 -
Luis Eduardo Mirassol Active 89 / 120 40% 1 09.08.2027 -
Fabián Correa Barranquilla Active 75 / 103 40% 1 09.08.2027 -
Jack Vale Pro Vercelli Active 101 / 99 40% 1 09.08.2027 -
Santiago Paiva Santos Active 107 / 109 40% 1 07.08.2027 -
João Dalla Corte Internacional Active 101 / 95 40% 1 05.08.2027 -
Funsho Bamgboye Hatayspor Active 103 / 108 40% 5 03.08.2027 -
Lorenzo De Leo Renate Active 107 / 97 40% 1 03.08.2027 -
Juan Diego Perdomo Depor Active 85 / 101 40% 1 03.08.2027 -
Chico Banza Zamalek Active 121 / 110 40% 3 31.07.2027 -
Marco Oroná Antofagasta Active 105 / 95 40% 2 31.07.2027 -
Danny Butterworth Bromley Active 104 / 99 40% 3 31.07.2027 -
Vinícius Lira Porto Active 118 / 129 40% 2 31.07.2027 -
Pedro Manoel Tammeka Active 76 / 102 40% 1 30.07.2027 -
Jackson Imbiakha Muranga Seal Active 85 / 74 40% 1 30.07.2027 -
Enzo González Defensores Active 122 / 118 40% 1 28.07.2027 -
Danylo Kravchuk LNZ Active 102 / 117 40% 3 25.07.2027 -
Will Goodwin Oxford United Active 95 / 96 40% 2 24.07.2027 -
Tamble Monteiro Rio Ave Active 120 / 128 40% 1 23.07.2027 -
Joseph Séry Karpaty Active 100 / 102 40% 1 22.07.2027 -
Harley Mills Peterborough United Active 96 / 100 40% 1 17.07.2027 -
Murilo Cruzeiro Active 90 / 113 40% 1 17.07.2027 -
Martim Cunha Porto Active 97 / 119 40% 2 16.07.2027 -
Elie N'Gatta Sochaux Active 92 / 96 40% 1 14.07.2027 -
Jorge Meireles AVS Active 125 / 115 40% 5 13.07.2027 -
Andre Green AVS Active 126 / 116 40% 1 13.07.2027 -
Aurélien Scheidler Charleroi Active 130 / 122 40% 1 06.07.2027 -
Alex Bruno Plaza Colonia Active 124 / 102 40% 1 03.07.2027 -
Mauricio Márquez Caracas Active 93 / 115 40% 1 02.07.2027 -
Alexandre Duville-Parsemain Moreirense Active 122 / 120 40% 2 01.07.2027 -
Callum Stead Barnet Active 105 / 93 40% 1 01.07.2027 -
Filip Kubala Banik Ostrava Active 112 / 119 40% 1 30.06.2027 -
Kimarni Smith Barnet Active 107 / 96 40% 1 30.06.2027 -
David Nieland Alcione Milano Active 108 / 96 40% 2 28.06.2027 -
Alexandr Saplinov Volga Active 105 / 108 40% 1 27.06.2027 -
Khaled Al-Nabris Ismaily Active 106 / 96 40% 3 26.06.2027 -
Kane Drummond Oldham Athletic Active 102 / 104 40% 1 23.06.2027 -
Luis Palacios Tigres Active 104 / 116 40% 1 22.06.2027 -
Ilja Safronov Rotor Active 98 / 114 40% 1 22.06.2027 -
Mustafa Sol Istanbulspor Active 98 / 99 40% 1 21.06.2027 -
Mamadou Mendy Istanbulspor Active 91 / 93 40% 1 19.06.2027 -
Brayan Moreno Santa Fe Active 108 / 106 40% 1 19.06.2027 -
Leonardo Candellone Juve Stabia Active 115 / 111 40% 1 17.06.2027 -
Emanuele Pecorino Catanzaro Active 110 / 109 40% 1 13.06.2027 -
Lucan Louw AS Police Active 67 / 77 40% 1 13.06.2027 -
Shaq Forde Bristol Rovers Active 96 / 98 40% 1 10.06.2027 -
Luis Palma Lech Active 110 / 129 40% 1 10.06.2027 -
Leon Sabua Neftekhimik Active 100 / 97 40% 1 09.06.2027 -
Tobías Cervera SonderjyskE Active 138 / 118 40% 1 09.06.2027 -
Matyáš Kozák Teplice Active 123 / 108 40% 1 08.06.2027 -
Mika Lusitânia Lourosa Active 104 / 102 40% 1 05.06.2027 -
Kamran Aliev SKA Khabarovsk Active 87 / 90 40% 1 02.06.2027 -
Marko Božić Wisla Krakow Active 101 / 115 40% 1 02.06.2027 -
André-Pierre Gignac Active 128 / 128 66% 1 01.06.2027 Approve
Tiago Esgaio Arouca Active 128 / 123 40% 1 31.01.2027 -
Iván Rodríguez Leon Active 132 / 126 40% 1 29.01.2027 -
Gonzalo Piovi Cruz Azul Active 128 / 139 40% 1 27.01.2027 -
Matías Gómez Karpaty Active 115 / 96 40% 1 26.01.2027 -
Lukáš Vorlický Slovacko Active 108 / 124 40% 1 24.01.2027 -
Murilo Souza Gil Vicente Active 113 / 116 40% 1 24.01.2027 -
Arjan Malić Sturm Graz Active 111 / 121 40% 1 24.01.2027 -
Alexandr Burkov Spartak Nalchik Active 64 / 80 40% 1 19.01.2027 -
Emirhan Başyiğit Sivasspor Active 129 / 100 40% 1 11.01.2027 -
José Neto Alverca Active 96 / 116 40% 2 09.01.2027 -
Ignacio Perruzzi San Lorenzo Active 132 / 124 40% 1 09.01.2027 -
Milan Roganović Partizan Active 120 / 113 40% 1 08.01.2027 -
Marius Courcoul Olympique de Marseille Active 120 / 124 40% 1 08.01.2027 -
Tiago Freitas Benfica Active 94 / 112 40% 1 04.01.2027 -
Diogo Bagüí Tijuana Active 101 / 102 40% 1 03.08.2026 -
Tobías Correa Uruguay Montevideo Active 74 / 107 40% 1 03.08.2026 -